Terminal Aerodrome Forecast
Issued by NWS Amarillo, TX

Current Version | Previous Version | Text Only | Print | Product List | Glossary Off
Versions: 1 2 3 4 5 6 7 8 9 10 11 12 13 14 15 16 17 18 19 20 21 22

456
FTUS44 KAMA 010026 AAA
TAFDHT
TAF AMD
KDHT 010026Z 0100/0124 01023G30KT P6SM OVC040
     FM010500 36020G30KT P6SM -RA OVC025=

USA.gov is the U.S. government's official web portal to all federal, state and local government web resources and services.